sensor_id;sensor_type;location;lat;lon;timestamp;pressure;altitude;pressure_sealevel;temperature;humidity
69535;BME280;56754;51.568;5.048;2023-03-21T00:01:21;101621.78;;;14.07;64.29
69535;BME280;56754;51.568;5.048;2023-03-21T00:03:47;101625.91;;;14.04;64.10
69535;BME280;56754;51.568;5.048;2023-03-21T00:06:12;101628.13;;;14.02;64.35
69535;BME280;56754;51.568;5.048;2023-03-21T00:08:38;101624.63;;;14.02;64.78
69535;BME280;56754;51.568;5.048;2023-03-21T00:11:07;101615.75;;;14.01;64.78
69535;BME280;56754;51.568;5.048;2023-03-21T00:13:34;101613.41;;;14.00;64.73
69535;BME280;56754;51.568;5.048;2023-03-21T00:18:32;101612.91;;;13.98;64.94
69535;BME280;56754;51.568;5.048;2023-03-21T00:21:00;101605.19;;;13.96;64.83
69535;BME280;56754;51.568;5.048;2023-03-21T00:23:26;101607.38;;;13.94;64.92
69535;BME280;56754;51.568;5.048;2023-03-21T00:25:52;101601.22;;;13.94;65.00
69535;BME280;56754;51.568;5.048;2023-03-21T00:28:18;101603.13;;;13.93;64.89
69535;BME280;56754;51.568;5.048;2023-03-21T00:30:43;101596.47;;;13.91;65.02
69535;BME280;56754;51.568;5.048;2023-03-21T00:33:08;101599.16;;;13.91;65.39
69535;BME280;56754;51.568;5.048;2023-03-21T00:35:34;101589.50;;;13.89;65.18
69535;BME280;56754;51.568;5.048;2023-03-21T00:37:59;101591.72;;;13.87;65.23
69535;BME280;56754;51.568;5.048;2023-03-21T00:40:24;101590.13;;;13.86;65.19
69535;BME280;56754;51.568;5.048;2023-03-21T00:42:50;101592.03;;;13.86;65.37
69535;BME280;56754;51.568;5.048;2023-03-21T00:45:15;101586.16;;;13.84;65.46
69535;BME280;56754;51.568;5.048;2023-03-21T00:47:40;101576.53;;;13.83;65.50
69535;BME280;56754;51.568;5.048;2023-03-21T00:50:06;101583.81;;;13.82;65.46
69535;BME280;56754;51.568;5.048;2023-03-21T00:52:31;101568.78;;;13.81;65.45
69535;BME280;56754;51.568;5.048;2023-03-21T00:54:57;101566.41;;;13.80;65.64
69535;BME280;56754;51.568;5.048;2023-03-21T00:57:22;101572.09;;;13.78;65.55
69535;BME280;56754;51.568;5.048;2023-03-21T00:59:47;101563.22;;;13.78;65.64
69535;BME280;56754;51.568;5.048;2023-03-21T01:02:13;101556.59;;;13.75;65.80
69535;BME280;56754;51.568;5.048;2023-03-21T01:04:38;101561.50;;;13.73;65.67
69535;BME280;56754;51.568;5.048;2023-03-21T01:07:03;101552.66;;;13.73;65.64
69535;BME280;56754;51.568;5.048;2023-03-21T01:09:29;101553.72;;;13.72;65.61
69535;BME280;56754;51.568;5.048;2023-03-21T01:11:54;101554.84;;;13.71;66.19
69535;BME280;56754;51.568;5.048;2023-03-21T01:14:21;101549.78;;;13.69;65.66
69535;BME280;56754;51.568;5.048;2023-03-21T01:16:47;101544.72;;;13.68;65.95
69535;BME280;56754;51.568;5.048;2023-03-21T01:19:15;101546.13;;;13.65;66.05
69535;BME280;56754;51.568;5.048;2023-03-21T01:21:41;101538.38;;;13.63;65.98
69535;BME280;56754;51.568;5.048;2023-03-21T01:24:06;101534.91;;;13.63;66.19
69535;BME280;56754;51.568;5.048;2023-03-21T01:26:32;101536.00;;;13.62;66.04
69535;BME280;56754;51.568;5.048;2023-03-21T01:28:57;101533.63;;;13.60;66.24
69535;BME280;56754;51.568;5.048;2023-03-21T01:31:23;101532.06;;;13.59;66.20
69535;BME280;56754;51.568;5.048;2023-03-21T01:33:48;101528.88;;;13.57;66.43
69535;BME280;56754;51.568;5.048;2023-03-21T01:36:17;101526.53;;;13.56;66.20
69535;BME280;56754;51.568;5.048;2023-03-21T01:38:43;101515.00;;;13.55;66.60
69535;BME280;56754;51.568;5.048;2023-03-21T01:41:27;101523.34;;;13.54;66.67
69535;BME280;56754;51.568;5.048;2023-03-21T01:43:53;101514.84;;;13.52;66.35
69535;BME280;56754;51.568;5.048;2023-03-21T01:46:42;101513.22;;;13.51;66.93
69535;BME280;56754;51.568;5.048;2023-03-21T01:49:28;101512.44;;;13.50;66.70
69535;BME280;56754;51.568;5.048;2023-03-21T01:52:02;101517.03;;;13.50;66.92
69535;BME280;56754;51.568;5.048;2023-03-21T01:54:31;101511.97;;;13.48;66.87
69535;BME280;56754;51.568;5.048;2023-03-21T01:57:01;101519.22;;;13.48;66.68
69535;BME280;56754;51.568;5.048;2023-03-21T01:59:32;101511.50;;;13.46;67.08
69535;BME280;56754;51.568;5.048;2023-03-21T02:02:02;101500.75;;;13.46;67.00
69535;BME280;56754;51.568;5.048;2023-03-21T02:04:28;101502.63;;;13.46;66.82
69535;BME280;56754;51.568;5.048;2023-03-21T02:06:58;101502.94;;;13.44;67.13
69535;BME280;56754;51.568;5.048;2023-03-21T02:09:27;101502.16;;;13.43;66.98
69535;BME280;56754;51.568;5.048;2023-03-21T02:11:55;101492.84;;;13.41;66.77
69535;BME280;56754;51.568;5.048;2023-03-21T02:14:20;101486.69;;;13.40;67.08
69535;BME280;56754;51.568;5.048;2023-03-21T02:27:55;101481.16;;;13.37;67.82
69535;BME280;56754;51.568;5.048;2023-03-21T02:36:17;101468.00;;;13.35;67.89
69535;BME280;56754;51.568;5.048;2023-03-21T02:39:04;101468.00;;;13.35;67.74
69535;BME280;56754;51.568;5.048;2023-03-21T02:41:44;101462.16;;;13.33;67.86
69535;BME280;56754;51.568;5.048;2023-03-21T02:46:52;101461.38;;;13.33;67.85
69535;BME280;56754;51.568;5.048;2023-03-21T02:49:28;101459.81;;;13.32;67.76
69535;BME280;56754;51.568;5.048;2023-03-21T02:51:56;101457.91;;;13.32;67.81
69535;BME280;56754;51.568;5.048;2023-03-21T02:54:23;101448.28;;;13.31;68.17
69535;BME280;56754;51.568;5.048;2023-03-21T02:56:51;101448.28;;;13.31;68.17
69535;BME280;56754;51.568;5.048;2023-03-21T02:59:18;101439.72;;;13.29;68.19
69535;BME280;56754;51.568;5.048;2023-03-21T03:01:45;101430.91;;;13.29;68.13
69535;BME280;56754;51.568;5.048;2023-03-21T03:04:21;101436.25;;;13.29;68.40
69535;BME280;56754;51.568;5.048;2023-03-21T03:12:10;101440.03;;;13.28;68.37
69535;BME280;56754;51.568;5.048;2023-03-21T03:17:48;101431.53;;;13.26;68.50
69535;BME280;56754;51.568;5.048;2023-03-21T03:20:40;101432.31;;;13.26;68.55
69535;BME280;56754;51.568;5.048;2023-03-21T03:23:23;101432.31;;;13.26;68.35
69535;BME280;56754;51.568;5.048;2023-03-21T03:28:33;101429.44;;;13.23;68.23
69535;BME280;56754;51.568;5.048;2023-03-21T03:31:00;101425.16;;;13.21;68.55
69535;BME280;56754;51.568;5.048;2023-03-21T03:33:27;101426.75;;;13.23;68.31
69535;BME280;56754;51.568;5.048;2023-03-21T03:35:54;101431.28;;;13.22;68.38
69535;BME280;56754;51.568;5.048;2023-03-21T03:38:22;101430.50;;;13.21;68.35
69535;BME280;56754;51.568;5.048;2023-03-21T03:40:57;101425.47;;;13.20;68.57
69535;BME280;56754;51.568;5.048;2023-03-21T03:43:49;101422.78;;;13.20;68.43
69535;BME280;56754;51.568;5.048;2023-03-21T03:46:29;101424.34;;;13.21;68.58
69535;BME280;56754;51.568;5.048;2023-03-21T03:49:01;101417.41;;;13.20;68.11
69535;BME280;56754;51.568;5.048;2023-03-21T03:51:32;101405.09;;;13.19;68.65
69535;BME280;56754;51.568;5.048;2023-03-21T03:54:03;101406.19;;;13.18;68.32
69535;BME280;56754;51.568;5.048;2023-03-21T03:56:30;101410.78;;;13.17;68.45
69535;BME280;56754;51.568;5.048;2023-03-21T03:58:56;101408.88;;;13.18;68.59
69535;BME280;56754;51.568;5.048;2023-03-21T04:01:22;101400.34;;;13.16;68.63
69535;BME280;56754;51.568;5.048;2023-03-21T04:03:48;101401.94;;;13.17;68.79
69535;BME280;56754;51.568;5.048;2023-03-21T04:06:13;101403.84;;;13.16;68.14
69535;BME280;56754;51.568;5.048;2023-03-21T04:08:39;101406.53;;;13.16;68.32
69535;BME280;56754;51.568;5.048;2023-03-21T04:11:04;101398.47;;;13.16;68.32
69535;BME280;56754;51.568;5.048;2023-03-21T04:13:30;101401.44;;;13.15;68.07
69535;BME280;56754;51.568;5.048;2023-03-21T04:15:55;101393.41;;;13.15;68.12
69535;BME280;56754;51.568;5.048;2023-03-21T04:18:20;101394.50;;;13.14;68.25
69535;BME280;56754;51.568;5.048;2023-03-21T04:20:46;101390.22;;;13.13;68.43
69535;BME280;56754;51.568;5.048;2023-03-21T04:23:11;101389.44;;;13.12;68.53
69535;BME280;56754;51.568;5.048;2023-03-21T04:25:36;101383.00;;;13.13;68.57
69535;BME280;56754;51.568;5.048;2023-03-21T04:28:02;101382.19;;;13.13;68.44
69535;BME280;56754;51.568;5.048;2023-03-21T04:30:27;101379.50;;;13.13;68.31
69535;BME280;56754;51.568;5.048;2023-03-21T04:32:53;101384.84;;;13.13;68.57
69535;BME280;56754;51.568;5.048;2023-03-21T04:35:18;101381.38;;;13.12;68.55
69535;BME280;56754;51.568;5.048;2023-03-21T04:37:44;101375.25;;;13.12;68.63
69535;BME280;56754;51.568;5.048;2023-03-21T04:40:10;101370.97;;;13.11;68.47
69535;BME280;56754;51.568;5.048;2023-03-21T04:42:36;101371.78;;;13.11;68.17
69535;BME280;56754;51.568;5.048;2023-03-21T04:45:01;101371.78;;;13.11;68.64
69535;BME280;56754;51.568;5.048;2023-03-21T04:47:27;101366.41;;;13.11;68.58
69535;BME280;56754;51.568;5.048;2023-03-21T04:49:52;101364.00;;;13.10;68.54
69535;BME280;56754;51.568;5.048;2023-03-21T04:52:17;101366.41;;;13.11;68.32
69535;BME280;56754;51.568;5.048;2023-03-21T04:54:43;101364.00;;;13.10;68.20
69535;BME280;56754;51.568;5.048;2023-03-21T04:57:09;101364.81;;;13.10;68.58
69535;BME280;56754;51.568;5.048;2023-03-21T04:59:34;101359.47;;;13.10;68.53
69535;BME280;56754;51.568;5.048;2023-03-21T05:02:00;101347.91;;;13.10;68.50
69535;BME280;56754;51.568;5.048;2023-03-21T05:04:25;101347.13;;;13.09;68.13
69535;BME280;56754;51.568;5.048;2023-03-21T05:06:51;101355.97;;;13.10;68.40
69535;BME280;56754;51.568;5.048;2023-03-21T05:09:17;101354.38;;;13.09;68.24
69535;BME280;56754;51.568;5.048;2023-03-21T05:11:43;101351.72;;;13.09;68.50
69535;BME280;56754;51.568;5.048;2023-03-21T05:14:11;101349.03;;;13.09;68.38
69535;BME280;56754;51.568;5.048;2023-03-21T05:16:39;101345.56;;;13.08;68.52
69535;BME280;56754;51.568;5.048;2023-03-21T05:19:04;101352.81;;;13.08;68.75
69535;BME280;56754;51.568;5.048;2023-03-21T05:21:31;101350.94;;;13.08;68.53
69535;BME280;56754;51.568;5.048;2023-03-21T05:23:56;101348.25;;;13.08;68.78
69535;BME280;56754;51.568;5.048;2023-03-21T05:26:22;101354.38;;;13.09;68.29
69535;BME280;56754;51.568;5.048;2023-03-21T05:28:48;101352.00;;;13.07;68.79
69535;BME280;56754;51.568;5.048;2023-03-21T05:31:15;101350.44;;;13.06;68.68
69535;BME280;56754;51.568;5.048;2023-03-21T05:33:40;101348.53;;;13.07;68.29
69535;BME280;56754;51.568;5.048;2023-03-21T05:36:06;101348.53;;;13.07;68.18
69535;BME280;56754;51.568;5.048;2023-03-21T05:38:32;101341.28;;;13.07;68.41
69535;BME280;56754;51.568;5.048;2023-03-21T05:40:57;101349.31;;;13.07;68.29
69535;BME280;56754;51.568;5.048;2023-03-21T05:43:22;101348.53;;;13.07;68.27
69535;BME280;56754;51.568;5.048;2023-03-21T05:45:47;101343.16;;;13.07;68.30
69535;BME280;56754;51.568;5.048;2023-03-21T05:48:13;101353.13;;;13.06;68.29
69535;BME280;56754;51.568;5.048;2023-03-21T05:50:38;101352.81;;;13.08;68.49
69535;BME280;56754;51.568;5.048;2023-03-21T05:53:03;101354.69;;;13.07;68.26
69535;BME280;56754;51.568;5.048;2023-03-21T05:55:29;101350.44;;;13.06;68.42
69535;BME280;56754;51.568;5.048;2023-03-21T05:57:54;101353.13;;;13.06;67.70
69535;BME280;56754;51.568;5.048;2023-03-21T06:00:19;101346.63;;;13.07;67.98
69535;BME280;56754;51.568;5.048;2023-03-21T06:02:45;101349.66;;;13.06;68.19
69535;BME280;56754;51.568;5.048;2023-03-21T06:05:10;101353.13;;;13.06;67.96
69535;BME280;56754;51.568;5.048;2023-03-21T06:07:35;101347.75;;;13.06;68.03
69535;BME280;56754;51.568;5.048;2023-03-21T06:10:01;101347.47;;;13.08;67.80
69535;BME280;56754;51.568;5.048;2023-03-21T06:12:27;101352.81;;;13.08;68.18
69535;BME280;56754;51.568;5.048;2023-03-21T06:14:52;101349.31;;;13.07;67.73
69535;BME280;56754;51.568;5.048;2023-03-21T06:17:17;101350.13;;;13.08;68.43
69535;BME280;56754;51.568;5.048;2023-03-21T06:19:43;101352.81;;;13.08;67.97
69535;BME280;56754;51.568;5.048;2023-03-21T06:22:08;101350.94;;;13.08;68.24
69535;BME280;56754;51.568;5.048;2023-03-21T06:24:33;101351.72;;;13.09;68.40
69535;BME280;56754;51.568;5.048;2023-03-21T06:26:58;101352.50;;;13.09;68.21
69535;BME280;56754;51.568;5.048;2023-03-21T06:29:24;101358.66;;;13.10;68.10
69535;BME280;56754;51.568;5.048;2023-03-21T06:31:49;101351.72;;;13.09;67.86
69535;BME280;56754;51.568;5.048;2023-03-21T06:34:14;101357.06;;;13.09;67.85
69535;BME280;56754;51.568;5.048;2023-03-21T06:36:40;101359.47;;;13.10;67.86
69535;BME280;56754;51.568;5.048;2023-03-21T06:39:05;101365.63;;;13.11;67.50
69535;BME280;56754;51.568;5.048;2023-03-21T06:41:30;101365.63;;;13.11;67.74
69535;BME280;56754;51.568;5.048;2023-03-21T06:43:56;101372.56;;;13.12;67.78
69535;BME280;56754;51.568;5.048;2023-03-21T06:46:21;101368.75;;;13.13;67.64
69535;BME280;56754;51.568;5.048;2023-03-21T06:48:46;101377.63;;;13.13;67.77
69535;BME280;56754;51.568;5.048;2023-03-21T06:51:13;101371.16;;;13.14;68.02
69535;BME280;56754;51.568;5.048;2023-03-21T06:53:39;101371.94;;;13.15;67.53
69535;BME280;56754;51.568;5.048;2023-03-21T06:56:05;101372.41;;;13.17;67.26
69535;BME280;56754;51.568;5.048;2023-03-21T06:58:30;101375.09;;;13.17;67.01
69535;BME280;56754;51.568;5.048;2023-03-21T07:00:58;101392.00;;;13.17;66.88
69535;BME280;56754;51.568;5.048;2023-03-21T07:03:23;101383.59;;;13.19;67.12
69535;BME280;56754;51.568;5.048;2023-03-21T07:05:48;101382.81;;;13.18;66.91
69535;BME280;56754;51.568;5.048;2023-03-21T07:08:13;101387.41;;;13.18;66.66
69535;BME280;56754;51.568;5.048;2023-03-21T07:10:40;101375.88;;;13.17;66.79
69535;BME280;56754;51.568;5.048;2023-03-21T07:13:06;101377.78;;;13.17;66.54
69535;BME280;56754;51.568;5.048;2023-03-21T07:15:31;101376.66;;;13.18;66.66
69535;BME280;56754;51.568;5.048;2023-03-21T07:17:57;101372.09;;;13.18;66.36
69535;BME280;56754;51.568;5.048;2023-03-21T07:20:22;101372.09;;;13.18;66.57
69535;BME280;56754;51.568;5.048;2023-03-21T07:22:47;101370.19;;;13.19;66.51
69535;BME280;56754;51.568;5.048;2023-03-21T07:25:13;101372.88;;;13.19;66.63
69535;BME280;56754;51.568;5.048;2023-03-21T07:27:39;101367.50;;;13.19;66.51
69535;BME280;56754;51.568;5.048;2023-03-21T07:30:05;101370.38;;;13.23;66.97
69535;BME280;56754;51.568;5.048;2023-03-21T07:32:34;101363.78;;;13.29;67.40
69535;BME280;56754;51.568;5.048;2023-03-21T07:35:00;101363.59;;;13.34;67.06
69535;BME280;56754;51.568;5.048;2023-03-21T07:37:26;101355.25;;;13.35;66.88
69535;BME280;56754;51.568;5.048;2023-03-21T07:39:51;101342.31;;;13.37;67.03
69535;BME280;56754;51.568;5.048;2023-03-21T07:42:17;101349.72;;;13.40;66.74
69535;BME280;56754;51.568;5.048;2023-03-21T07:44:42;101345.63;;;13.43;66.56
69535;BME280;56754;51.568;5.048;2023-03-21T07:47:07;101338.81;;;13.46;66.59
69535;BME280;56754;51.568;5.048;2023-03-21T07:49:33;101335.84;;;13.47;66.60
69535;BME280;56754;51.568;5.048;2023-03-21T07:51:58;101338.66;;;13.51;66.99
69535;BME280;56754;51.568;5.048;2023-03-21T07:54:24;101339.16;;;13.53;66.94
69535;BME280;56754;51.568;5.048;2023-03-21T07:56:49;101333.44;;;13.54;66.68
69535;BME280;56754;51.568;5.048;2023-03-21T07:59:15;101343.88;;;13.56;66.75
69535;BME280;56754;51.568;5.048;2023-03-21T08:01:40;101334.72;;;13.57;66.68
69535;BME280;56754;51.568;5.048;2023-03-21T08:04:05;101327.44;;;13.57;66.62
69535;BME280;56754;51.568;5.048;2023-03-21T08:06:31;101329.81;;;13.59;67.18
69535;BME280;56754;51.568;5.048;2023-03-21T08:08:56;101331.41;;;13.60;66.97
69535;BME280;56754;51.568;5.048;2023-03-21T08:11:21;101325.88;;;13.56;66.51
69535;BME280;56754;51.568;5.048;2023-03-21T08:13:47;101332.38;;;13.55;66.76
69535;BME280;56754;51.568;5.048;2023-03-21T08:16:12;101320.84;;;13.55;66.60
69535;BME280;56754;51.568;5.048;2023-03-21T08:18:37;101313.56;;;13.55;66.62
69535;BME280;56754;51.568;5.048;2023-03-21T08:21:03;101311.66;;;13.56;66.80
69535;BME280;56754;51.568;5.048;2023-03-21T08:23:28;101307.84;;;13.57;66.74
69535;BME280;56754;51.568;5.048;2023-03-21T08:25:54;101309.47;;;13.58;66.64
69535;BME280;56754;51.568;5.048;2023-03-21T08:28:20;101310.25;;;13.58;66.48
69535;BME280;56754;51.568;5.048;2023-03-21T08:30:46;101302.19;;;13.58;66.64
69535;BME280;56754;51.568;5.048;2023-03-21T08:33:12;101308.34;;;13.59;66.46
69535;BME280;56754;51.568;5.048;2023-03-21T08:35:38;101294.91;;;13.59;66.48
69535;BME280;56754;51.568;5.048;2023-03-21T08:38:04;101280.38;;;13.60;66.48
69535;BME280;56754;51.568;5.048;2023-03-21T08:40:30;101299.66;;;13.62;66.32
69535;BME280;56754;51.568;5.048;2023-03-21T08:42:55;101295.84;;;13.63;66.46
69535;BME280;56754;51.568;5.048;2023-03-21T08:45:21;101292.53;;;13.66;66.53
69535;BME280;56754;51.568;5.048;2023-03-21T08:47:47;101299.00;;;13.65;66.30
69535;BME280;56754;51.568;5.048;2023-03-21T08:50:15;101287.16;;;13.66;66.54
69535;BME280;56754;51.568;5.048;2023-03-21T08:52:42;101287.16;;;13.66;66.51
69535;BME280;56754;51.568;5.048;2023-03-21T08:55:08;101283.81;;;13.69;66.48
69535;BME280;56754;51.568;5.048;2023-03-21T08:57:33;101283.81;;;13.69;66.46
69535;BME280;56754;51.568;5.048;2023-03-21T08:59:59;101283.03;;;13.69;66.46
69535;BME280;56754;51.568;5.048;2023-03-21T09:02:24;101287.31;;;13.70;66.69
69535;BME280;56754;51.568;5.048;2023-03-21T09:04:50;101283.19;;;13.72;66.53
69535;BME280;56754;51.568;5.048;2023-03-21T09:07:15;101281.75;;;13.75;66.47
69535;BME280;56754;51.568;5.048;2023-03-21T09:09:41;101281.13;;;13.78;66.69
69535;BME280;56754;51.568;5.048;2023-03-21T09:12:06;101277.00;;;13.80;66.42
69535;BME280;56754;51.568;5.048;2023-03-21T09:14:32;101280.19;;;13.82;66.50
69535;BME280;56754;51.568;5.048;2023-03-21T09:16:57;101275.59;;;13.83;66.72
69535;BME280;56754;51.568;5.048;2023-03-21T09:19:23;101282.53;;;13.84;66.61
69535;BME280;56754;51.568;5.048;2023-03-21T09:21:48;101267.22;;;13.84;66.63
69535;BME280;56754;51.568;5.048;2023-03-21T09:24:13;101271.78;;;13.84;66.79
69535;BME280;56754;51.568;5.048;2023-03-21T09:26:38;101261.03;;;13.84;66.57
69535;BME280;56754;51.568;5.048;2023-03-21T09:29:04;101268.31;;;13.83;66.85
69535;BME280;56754;51.568;5.048;2023-03-21T09:31:29;101270.69;;;13.85;66.85
69535;BME280;56754;51.568;5.048;2023-03-21T09:33:54;101268.78;;;13.85;66.65
69535;BME280;56754;51.568;5.048;2023-03-21T09:36:20;101264.97;;;13.86;66.60
69535;BME280;56754;51.568;5.048;2023-03-21T09:38:46;101263.09;;;13.87;66.60
69535;BME280;56754;51.568;5.048;2023-03-21T09:41:38;101269.28;;;13.87;66.26
69535;BME280;56754;51.568;5.048;2023-03-21T09:44:40;101256.94;;;13.86;66.12
69535;BME280;56754;51.568;5.048;2023-03-21T09:49:45;101261.66;;;13.89;66.34
69535;BME280;56754;51.568;5.048;2023-03-21T09:52:18;101267.03;;;13.89;66.21
69535;BME280;56754;51.568;5.048;2023-03-21T09:54:45;101256.28;;;13.89;65.91
69535;BME280;56754;51.568;5.048;2023-03-21T09:57:38;101257.88;;;13.91;66.06
69535;BME280;56754;51.568;5.048;2023-03-21T10:00:11;101256.75;;;13.92;66.57
69535;BME280;56754;51.568;5.048;2023-03-21T10:02:40;101253.91;;;13.97;66.45
69535;BME280;56754;51.568;5.048;2023-03-21T10:05:21;101256.72;;;14.00;66.27
69535;BME280;56754;51.568;5.048;2023-03-21T10:10:27;101253.06;;;14.05;66.20
69535;BME280;56754;51.568;5.048;2023-03-21T10:12:54;101242.00;;;14.06;66.34
69535;BME280;56754;51.568;5.048;2023-03-21T10:15:23;101236.31;;;14.08;66.47
69535;BME280;56754;51.568;5.048;2023-03-21T10:17:56;101241.69;;;14.08;66.61
69535;BME280;56754;51.568;5.048;2023-03-21T10:20:34;101243.28;;;14.09;66.94
69535;BME280;56754;51.568;5.048;2023-03-21T10:23:03;101234.41;;;14.08;66.94
69535;BME280;56754;51.568;5.048;2023-03-21T10:25:33;101236.31;;;14.08;66.28
69535;BME280;56754;51.568;5.048;2023-03-21T10:28:00;101248.94;;;14.07;67.10
69535;BME280;56754;51.568;5.048;2023-03-21T10:30:45;101232.81;;;14.07;66.42
69535;BME280;56754;51.568;5.048;2023-03-21T10:33:22;101229.34;;;14.07;66.83
69535;BME280;56754;51.568;5.048;2023-03-21T10:35:52;101237.41;;;14.07;66.79
69535;BME280;56754;51.568;5.048;2023-03-21T10:38:22;101238.19;;;14.07;66.49
69535;BME280;56754;51.568;5.048;2023-03-21T10:40:48;101237.09;;;14.08;66.52
69535;BME280;56754;51.568;5.048;2023-03-21T10:45:55;101248.31;;;14.10;66.13
69535;BME280;56754;51.568;5.048;2023-03-21T10:48:21;101251.00;;;14.10;66.36
69535;BME280;56754;51.568;5.048;2023-03-21T10:50:49;101238.03;;;14.13;65.65
69535;BME280;56754;51.568;5.048;2023-03-21T10:53:31;101233.44;;;14.13;66.31
69535;BME280;56754;51.568;5.048;2023-03-21T10:56:00;101224.59;;;14.13;65.79
69535;BME280;56754;51.568;5.048;2023-03-21T10:58:30;101223.47;;;14.14;66.12
69535;BME280;56754;51.568;5.048;2023-03-21T11:01:04;101213.53;;;14.14;65.92
69535;BME280;56754;51.568;5.048;2023-03-21T11:08:37;101234.69;;;14.16;65.16
69535;BME280;56754;51.568;5.048;2023-03-21T11:11:06;101232.78;;;14.16;65.54
69535;BME280;56754;51.568;5.048;2023-03-21T11:13:37;101221.72;;;14.18;65.18
69535;BME280;56754;51.568;5.048;2023-03-21T11:18:39;101228.03;;;14.22;65.76
69535;BME280;56754;51.568;5.048;2023-03-21T11:21:07;101223.13;;;14.24;65.79
69535;BME280;56754;51.568;5.048;2023-03-21T11:23:39;101215.84;;;14.24;65.20
69535;BME280;56754;51.568;5.048;2023-03-21T11:26:15;101220.91;;;14.26;65.07
69535;BME280;56754;51.568;5.048;2023-03-21T11:28:41;101229.75;;;14.26;65.11
69535;BME280;56754;51.568;5.048;2023-03-21T11:31:08;101234.78;;;14.28;65.15
69535;BME280;56754;51.568;5.048;2023-03-21T11:33:36;101233.69;;;14.29;64.83
69535;BME280;56754;51.568;5.048;2023-03-21T11:38:36;101216.09;;;14.31;65.00
69535;BME280;56754;51.568;5.048;2023-03-21T11:41:02;101217.69;;;14.32;64.49
69535;BME280;56754;51.568;5.048;2023-03-21T11:43:34;101216.56;;;14.33;64.30
69535;BME280;56754;51.568;5.048;2023-03-21T11:48:29;101211.19;;;14.33;64.36
69535;BME280;56754;51.568;5.048;2023-03-21T11:50:59;101212.78;;;14.34;64.12
69535;BME280;56754;51.568;5.048;2023-03-21T11:59:00;101193.97;;;14.34;63.65
69535;BME280;56754;51.568;5.048;2023-03-21T12:01:34;101192.84;;;14.36;64.11
69535;BME280;56754;51.568;5.048;2023-03-21T12:06:48;101193.31;;;14.38;63.82
69535;BME280;56754;51.568;5.048;2023-03-21T12:25:49;101165.78;;;14.41;61.45
69535;BME280;56754;51.568;5.048;2023-03-21T12:31:20;101176.97;;;14.43;61.46
69535;BME280;56754;51.568;5.048;2023-03-21T12:42:08;101163.19;;;14.53;60.45
69535;BME280;56754;51.568;5.048;2023-03-21T12:44:38;101169.81;;;14.55;60.17
69535;BME280;56754;51.568;5.048;2023-03-21T12:47:09;101169.47;;;14.57;59.81
69535;BME280;56754;51.568;5.048;2023-03-21T12:49:46;101166.47;;;14.59;60.46
69535;BME280;56754;51.568;5.048;2023-03-21T12:52:21;101155.84;;;14.62;60.98
69535;BME280;56754;51.568;5.048;2023-03-21T12:54:52;101157.88;;;14.65;59.37
69535;BME280;56754;51.568;5.048;2023-03-21T12:57:33;101159.13;;;14.68;60.13
69535;BME280;56754;51.568;5.048;2023-03-21T13:00:19;101158.00;;;14.69;59.02
69535;BME280;56754;51.568;5.048;2023-03-21T13:02:54;101156.56;;;14.71;60.07
69535;BME280;56754;51.568;5.048;2023-03-21T13:05:39;101148.94;;;14.73;59.84
69535;BME280;56754;51.568;5.048;2023-03-21T13:08:10;101151.75;;;14.77;60.14
69535;BME280;56754;51.568;5.048;2023-03-21T13:10:40;101144.47;;;14.77;60.18
69535;BME280;56754;51.568;5.048;2023-03-21T13:18:39;101129.13;;;14.78;58.46
69535;BME280;56754;51.568;5.048;2023-03-21T13:21:14;101139.88;;;14.78;58.39
69535;BME280;56754;51.568;5.048;2023-03-21T13:23:40;101130.72;;;14.79;58.02
69535;BME280;56754;51.568;5.048;2023-03-21T13:26:11;101134.63;;;14.82;58.45
69535;BME280;56754;51.568;5.048;2023-03-21T13:28:38;101125.44;;;14.83;59.44
69535;BME280;56754;51.568;5.048;2023-03-21T13:31:17;101120.06;;;14.83;59.19
69535;BME280;56754;51.568;5.048;2023-03-21T13:33:52;101125.88;;;14.85;59.41
69535;BME280;56754;51.568;5.048;2023-03-21T13:36:25;101114.03;;;14.86;59.47
69535;BME280;56754;51.568;5.048;2023-03-21T13:38:58;101103.69;;;14.88;60.89
69535;BME280;56754;51.568;5.048;2023-03-21T13:41:31;101094.97;;;14.91;62.57
69535;BME280;56754;51.568;5.048;2023-03-21T13:54:15;101107.13;;;14.97;61.97
69535;BME280;56754;51.568;5.048;2023-03-21T13:59:10;101102.94;;;14.99;61.03
69535;BME280;56754;51.568;5.048;2023-03-21T14:01:44;101101.50;;;15.02;62.50
69535;BME280;56754;51.568;5.048;2023-03-21T14:04:25;101100.41;;;15.03;60.90
69535;BME280;56754;51.568;5.048;2023-03-21T14:07:01;101089.63;;;15.03;60.75
69535;BME280;56754;51.568;5.048;2023-03-21T14:12:02;101095.44;;;15.05;62.43
69535;BME280;56754;51.568;5.048;2023-03-21T14:14:49;101094.66;;;15.05;61.82
69535;BME280;56754;51.568;5.048;2023-03-21T14:17:24;101082.66;;;15.02;61.97
69535;BME280;56754;51.568;5.048;2023-03-21T14:19:55;101084.25;;;15.03;62.03
69535;BME280;56754;51.568;5.048;2023-03-21T14:22:21;101079.97;;;15.02;62.74
69535;BME280;56754;51.568;5.048;2023-03-21T14:24:58;101081.56;;;15.03;62.67
69535;BME280;56754;51.568;5.048;2023-03-21T14:27:25;101073.03;;;15.01;62.16
69535;BME280;56754;51.568;5.048;2023-03-21T14:29:51;101074.59;;;15.02;62.75
69535;BME280;56754;51.568;5.048;2023-03-21T14:32:21;101073.81;;;15.01;62.94
69535;BME280;56754;51.568;5.048;2023-03-21T14:34:47;101073.03;;;15.01;62.62
69535;BME280;56754;51.568;5.048;2023-03-21T14:37:37;101081.41;;;14.99;62.05
69535;BME280;56754;51.568;5.048;2023-03-21T14:40:07;101089.47;;;14.99;59.87
69535;BME280;56754;51.568;5.048;2023-03-21T14:42:45;101088.38;;;15.00;60.73
69535;BME280;56754;51.568;5.048;2023-03-21T14:45:23;101089.16;;;15.01;61.81
69535;BME280;56754;51.568;5.048;2023-03-21T14:48:04;101090.63;;;14.98;61.11